Time;durP1;ratioP1;P1;durP2;ratioP2;P2;SDS_P1;SDS_P2;PMS_P1;PMS_P2;Temp;Humidity;BMP_temperature;BMP_pressure;BME280_temperature;BME280_humidity;BME280_pressure;Samples;Min_cycle;Max_cycle;Signal;HPM_P1;HPM_P2
2022/04/28 00:00:00;;;;;;;14.35;7.43;;;;;;;6.84;71.30;103098.47;4999411;28;20362;-57
2022/04/28 00:02:26;;;;;;;13.43;7.20;;;;;;;6.82;71.80;103101.00;4988049;28;20042;-60
2022/04/28 00:04:52;;;;;;;15.82;7.85;;;;;;;6.82;71.56;103097.50;4997453;28;20570;-59
2022/04/28 00:07:18;;;;;;;16.38;7.78;;;;;;;6.83;71.65;103102.75;4999692;28;20080;-59
2022/04/28 00:09:43;;;;;;;16.00;7.65;;;;;;;6.81;71.47;103100.91;5000078;28;20045;-59
2022/04/28 00:12:10;;;;;;;17.98;7.90;;;;;;;6.79;71.51;103105.06;4988018;28;20033;-59
2022/04/28 00:14:36;;;;;;;16.05;7.60;;;;;;;6.76;71.73;103098.00;5000377;28;20052;-61
2022/04/28 00:17:02;;;;;;;17.15;7.93;;;;;;;6.75;71.82;103106.59;4988172;28;20885;-60
2022/04/28 00:19:28;;;;;;;16.73;7.80;;;;;;;6.76;72.01;103107.50;5000199;28;20477;-60
2022/04/28 00:21:53;;;;;;;15.52;8.30;;;;;;;6.71;71.60;103101.97;5001676;28;20041;-60
2022/04/28 00:24:18;;;;;;;15.43;7.82;;;;;;;6.72;71.87;103110.66;4985428;28;20140;-61
2022/04/28 00:26:44;;;;;;;16.10;7.47;;;;;;;6.71;72.19;103096.81;4995146;28;20124;-59
2022/04/28 00:29:09;;;;;;;16.48;7.90;;;;;;;6.71;72.05;103098.53;5000244;28;20386;-59
2022/04/28 00:31:34;;;;;;;15.18;7.57;;;;;;;6.68;72.16;103101.81;4996983;28;20450;-59
2022/04/28 00:34:00;;;;;;;16.65;7.65;;;;;;;6.66;71.82;103094.72;4994221;28;20037;-58
2022/04/28 00:36:25;;;;;;;16.83;7.60;;;;;;;6.63;71.93;103089.34;4992539;28;20602;-60
2022/04/28 00:38:50;;;;;;;19.42;8.23;;;;;;;6.62;72.07;103096.22;4997319;28;20086;-59
2022/04/28 00:41:16;;;;;;;19.17;7.93;;;;;;;6.62;72.18;103088.44;4997889;28;20044;-59
2022/04/28 00:43:52;;;;;;;14.30;7.28;;;;;;;6.60;71.98;103090.03;4997902;28;20041;-59
2022/04/28 00:46:18;;;;;;;19.98;8.50;;;;;;;6.57;71.90;103092.44;4991959;28;20642;-60
2022/04/28 00:51:32;;;;;;;15.23;8.10;;;;;;;6.51;72.21;103092.94;5001813;28;20076;-59
2022/04/28 00:53:59;;;;;;;20.60;8.48;;;;;;;6.50;72.21;103095.44;4992643;28;20327;-58
2022/04/28 00:56:26;;;;;;;18.88;8.15;;;;;;;6.48;72.17;103089.25;4994866;28;22003;-59
2022/04/28 00:58:53;;;;;;;16.05;8.10;;;;;;;6.46;71.94;103094.31;4999040;28;20115;-61
2022/04/28 01:01:18;;;;;;;18.05;8.02;;;;;;;6.48;72.04;103097.00;4996348;28;20037;-59
2022/04/28 01:03:46;;;;;;;16.05;8.32;;;;;;;6.46;72.25;103096.03;4993380;28;20355;-61
2022/04/28 01:06:12;;;;;;;18.10;8.65;;;;;;;6.45;72.43;103092.53;4993516;28;20271;-60
2022/04/28 01:08:38;;;;;;;13.93;8.20;;;;;;;6.45;72.39;103089.97;4994809;28;20098;-58
2022/04/28 01:11:04;;;;;;;17.63;8.63;;;;;;;6.43;72.42;103093.22;4994508;28;20053;-60
2022/04/28 01:13:30;;;;;;;16.20;9.02;;;;;;;6.41;72.20;103095.72;4988206;28;20025;-61
2022/04/28 01:15:55;;;;;;;16.17;8.77;;;;;;;6.36;72.15;103081.56;4999643;28;20063;-59
2022/04/28 01:18:21;;;;;;;16.02;8.90;;;;;;;6.35;72.45;103087.53;4988930;28;20128;-59
2022/04/28 01:20:46;;;;;;;22.67;9.15;;;;;;;6.32;72.34;103079.59;4995523;28;20598;-59
2022/04/28 01:23:12;;;;;;;17.90;8.95;;;;;;;6.32;72.25;103089.03;5000348;28;20753;-58
2022/04/28 01:25:37;;;;;;;17.25;9.15;;;;;;;6.32;72.13;103089.94;4983091;28;20041;-61
2022/04/28 01:28:03;;;;;;;14.88;8.45;;;;;;;6.32;72.52;103092.53;4988968;28;20456;-62
2022/04/28 01:30:29;;;;;;;17.30;9.27;;;;;;;6.29;72.37;103091.41;4997734;28;20048;-60
2022/04/28 01:32:58;;;;;;;17.67;9.20;;;;;;;6.29;72.47;103091.41;4994815;28;20552;-59
2022/04/28 01:35:24;;;;;;;18.98;9.57;;;;;;;6.25;72.40;103090.34;4997227;28;20378;-59
2022/04/28 01:37:50;;;;;;;19.55;9.43;;;;;;;6.24;72.43;103093.72;4994095;28;20056;-59
2022/04/28 01:40:16;;;;;;;18.85;9.52;;;;;;;6.24;72.60;103082.44;4989503;28;20041;-61
2022/04/28 01:42:42;;;;;;;17.23;10.00;;;;;;;6.21;72.45;103092.63;4997867;28;20376;-59
2022/04/28 01:45:09;;;;;;;15.70;9.18;;;;;;;6.19;72.47;103095.09;5003424;28;20530;-59
2022/04/28 01:47:36;;;;;;;16.50;8.88;;;;;;;6.18;72.33;103090.72;4994469;28;20041;-59
2022/04/28 01:50:03;;;;;;;22.92;9.35;;;;;;;6.15;72.10;103090.53;4996239;28;20045;-59
2022/04/28 01:55:12;;;;;;;17.52;9.00;;;;;;;6.16;72.33;103088.84;4996680;28;20596;-60
2022/04/28 01:57:39;;;;;;;17.75;9.25;;;;;;;6.15;72.22;103093.13;4995962;28;20127;-61
2022/04/28 02:00:06;;;;;;;17.52;9.30;;;;;;;6.15;72.53;103094.81;4989385;28;20045;-60
2022/04/28 02:02:34;;;;;;;17.58;9.40;;;;;;;6.13;72.34;103102.47;4995240;28;20427;-58
2022/04/28 02:05:01;;;;;;;17.65;9.13;;;;;;;6.12;72.52;103095.50;5000484;28;20416;-59
2022/04/28 02:07:27;;;;;;;18.40;9.52;;;;;;;6.12;72.61;103090.31;4993103;28;20042;-60
2022/04/28 02:09:53;;;;;;;20.17;9.60;;;;;;;6.11;72.75;103096.28;4998411;28;20049;-60
2022/04/28 02:12:19;;;;;;;19.77;9.82;;;;;;;6.11;72.61;103089.41;4984388;28;20140;-58
2022/04/28 02:14:45;;;;;;;21.42;10.10;;;;;;;6.09;72.58;103096.19;4987106;28;20038;-59
2022/04/28 02:17:11;;;;;;;18.45;8.98;;;;;;;6.10;72.54;103100.56;5000351;28;20053;-59
2022/04/28 02:19:36;;;;;;;18.85;9.98;;;;;;;6.09;73.41;103088.44;4988459;28;20246;-60
2022/04/28 02:22:02;;;;;;;18.55;9.90;;;;;;;6.13;72.93;103093.81;4992380;28;20396;-61
2022/04/28 02:24:28;;;;;;;21.05;10.05;;;;;;;6.13;72.95;103097.28;4994326;28;20107;-58
2022/04/28 02:26:53;;;;;;;21.90;10.50;;;;;;;6.22;73.91;103102.19;4994912;28;20055;-59
2022/04/28 02:29:19;;;;;;;21.95;10.23;;;;;;;6.34;73.93;103097.81;4996835;28;20558;-59
2022/04/28 02:31:44;;;;;;;21.48;10.10;;;;;;;6.38;73.63;103107.59;4993947;28;21927;-59
2022/04/28 02:34:11;;;;;;;25.63;11.02;;;;;;;6.37;73.12;103098.91;4992636;28;20037;-60
2022/04/28 02:36:36;;;;;;;19.00;9.68;;;;;;;6.37;72.76;103101.50;4995709;28;20149;-59
2022/04/28 02:39:02;;;;;;;20.42;10.18;;;;;;;6.32;72.89;103092.53;4997291;28;20459;-59
2022/04/28 02:41:27;;;;;;;18.05;9.70;;;;;;;6.28;72.60;103094.84;4996172;28;20060;-60
2022/04/28 02:43:53;;;;;;;16.92;9.88;;;;;;;6.24;72.47;103096.31;4992007;28;20397;-59
2022/04/28 02:46:19;;;;;;;15.18;8.93;;;;;;;6.19;72.50;103097.69;4978901;28;20098;-61
2022/04/28 02:48:45;;;;;;;16.10;9.32;;;;;;;6.15;72.79;103095.72;4998618;28;20799;-60
2022/04/28 02:51:11;;;;;;;16.55;9.63;;;;;;;6.12;72.36;103095.50;4995301;28;20053;-58
2022/04/28 02:53:36;;;;;;;27.25;12.65;;;;;;;6.16;73.47;103101.78;4991020;28;20046;-59
2022/04/28 02:56:02;;;;;;;20.20;11.20;;;;;;;6.19;73.21;103099.38;4995305;28;20520;-59
2022/04/28 02:58:27;;;;;;;23.58;11.13;;;;;;;6.22;73.07;103097.00;4988077;28;20244;-59
2022/04/28 03:00:53;;;;;;;22.30;10.77;;;;;;;6.18;72.98;103101.06;4976815;28;20046;-59
2022/04/28 03:03:18;;;;;;;17.05;9.80;;;;;;;6.14;72.84;103095.59;4990085;28;20040;-59
2022/04/28 03:11:12;;;;;;;18.73;10.07;;;;;;;5.98;72.87;103089.38;4988016;28;20051;-58
2022/04/28 03:13:38;;;;;;;17.88;9.63;;;;;;;5.96;73.00;103092.69;4995909;28;20014;-59
2022/04/28 03:16:04;;;;;;;19.38;10.57;;;;;;;5.91;72.64;103088.91;4977198;28;20488;-60
2022/04/28 03:18:29;;;;;;;19.05;10.18;;;;;;;5.87;73.07;103100.72;4997249;28;20041;-59
2022/04/28 03:20:55;;;;;;;17.85;10.07;;;;;;;5.86;72.47;103095.38;4980942;28;20833;-59
2022/04/28 03:23:21;;;;;;;18.38;9.73;;;;;;;5.82;72.82;103106.34;4996324;28;20999;-60
2022/04/28 03:25:46;;;;;;;19.33;10.82;;;;;;;5.78;72.96;103096.59;4983629;28;20041;-59
2022/04/28 03:28:12;;;;;;;19.13;10.68;;;;;;;5.76;72.77;103095.56;4992519;28;20103;-61
2022/04/28 03:30:37;;;;;;;22.92;11.70;;;;;;;5.85;73.15;103096.22;4998641;28;20091;-60
2022/04/28 03:33:03;;;;;;;18.38;10.85;;;;;;;5.83;72.96;103092.59;5000572;28;20057;-60
2022/04/28 03:35:28;;;;;;;20.83;11.88;;;;;;;5.79;72.89;103091.53;4999704;28;20405;-60
2022/04/28 03:37:54;;;;;;;22.00;11.40;;;;;;;5.78;73.24;103092.31;4998852;28;20060;-58
2022/04/28 03:40:20;;;;;;;18.60;11.02;;;;;;;5.78;73.39;103097.47;4990308;28;20744;-60
2022/04/28 03:42:47;;;;;;;20.08;10.57;;;;;;;5.76;73.11;103092.97;5000414;28;20045;-59
2022/04/28 03:45:13;;;;;;;19.30;11.32;;;;;;;5.73;72.96;103091.09;4996105;28;20111;-60
2022/04/28 03:47:38;;;;;;;20.77;11.32;;;;;;;5.74;73.20;103095.47;5001121;28;20541;-58
2022/04/28 03:50:07;;;;;;;22.27;12.10;;;;;;;5.73;72.84;103104.91;4995411;28;20037;-61
2022/04/28 03:52:33;;;;;;;22.83;11.90;;;;;;;5.76;73.19;103105.91;4988797;28;20037;-60
2022/04/28 03:54:58;;;;;;;22.42;12.50;;;;;;;5.74;73.51;103100.63;4997589;28;20059;-60
2022/04/28 03:57:24;;;;;;;21.58;12.73;;;;;;;5.71;73.44;103096.16;4973382;28;20910;-57
2022/04/28 03:59:49;;;;;;;23.13;12.73;;;;;;;5.71;73.57;103092.69;5000333;28;20127;-58
2022/04/28 04:02:14;;;;;;;26.88;13.48;;;;;;;5.68;73.52;103090.75;4959562;28;20042;-59
2022/04/28 04:04:40;;;;;;;24.95;13.13;;;;;;;5.68;73.61;103095.94;4998565;28;20618;-57
2022/04/28 04:07:06;;;;;;;25.30;13.63;;;;;;;5.67;73.61;103094.13;5001328;28;20044;-58
2022/04/28 04:09:32;;;;;;;23.17;13.13;;;;;;;5.67;73.20;103098.44;4988090;28;20057;-60
2022/04/28 04:11:58;;;;;;;22.83;12.40;;;;;;;5.67;73.11;103093.28;4995020;28;20057;-59
2022/04/28 04:14:23;;;;;;;21.30;12.25;;;;;;;5.66;73.29;103094.06;4987497;28;20037;-59
2022/04/28 04:16:49;;;;;;;29.50;13.77;;;;;;;5.63;73.42;103097.31;5001556;28;20045;-58
2022/04/28 04:19:14;;;;;;;21.80;12.55;;;;;;;5.65;73.52;103100.03;5000744;28;20531;-60
2022/04/28 04:21:39;;;;;;;24.00;13.00;;;;;;;5.65;73.88;103100.03;4994454;28;20042;-59
2022/04/28 04:24:06;;;;;;;23.65;12.85;;;;;;;5.66;73.46;103105.31;4985910;28;20512;-60
2022/04/28 04:26:32;;;;;;;24.77;13.38;;;;;;;5.66;73.84;103102.72;4998189;28;20049;-59
2022/04/28 04:28:57;;;;;;;29.02;14.35;;;;;;;5.68;73.81;103105.38;4984210;28;20166;-60
2022/04/28 04:34:06;;;;;;;30.33;15.60;;;;;;;5.75;74.14;103109.28;4985906;28;20045;-60
2022/04/28 04:36:31;;;;;;;28.42;15.23;;;;;;;5.78;73.69;103114.69;4990515;28;20046;-60
2022/04/28 04:38:57;;;;;;;30.02;14.77;;;;;;;5.84;74.05;103117.72;4998034;28;20407;-58
2022/04/28 04:41:22;;;;;;;26.17;14.45;;;;;;;5.91;74.17;103117.38;4996801;28;20644;-60
2022/04/28 04:43:48;;;;;;;30.13;15.18;;;;;;;5.94;74.24;103122.75;4992982;28;20135;-60
2022/04/28 04:46:13;;;;;;;30.50;15.40;;;;;;;5.99;74.35;103121.34;4986899;28;20075;-60
2022/04/28 04:48:38;;;;;;;29.45;14.88;;;;;;;6.06;74.47;103119.28;4987692;28;20062;-57
2022/04/28 04:51:03;;;;;;;30.52;15.43;;;;;;;6.15;74.33;103125.88;4990563;28;20045;-60
2022/04/28 04:53:29;;;;;;;32.30;15.57;;;;;;;6.22;74.16;103128.09;4998343;28;20657;-59
2022/04/28 04:55:55;;;;;;;29.17;15.13;;;;;;;6.34;74.44;103137.56;5000259;28;20100;-59
2022/04/28 04:58:20;;;;;;;30.02;14.98;;;;;;;6.51;74.19;103142.19;4991620;28;20381;-60
2022/04/28 05:00:46;;;;;;;30.00;15.00;;;;;;;6.69;73.80;103146.78;4981161;28;20057;-59
2022/04/28 05:03:13;;;;;;;25.90;14.85;;;;;;;6.78;73.60;103145.66;5001290;28;20049;-60
2022/04/28 05:05:38;;;;;;;28.83;14.77;;;;;;;6.86;73.36;103144.47;4995146;28;20046;-59
2022/04/28 05:08:04;;;;;;;27.40;14.52;;;;;;;6.99;73.30;103155.63;4982986;28;20377;-60
2022/04/28 05:10:30;;;;;;;26.20;13.88;;;;;;;7.09;72.96;103147.63;4995612;28;20073;-60
2022/04/28 05:12:56;;;;;;;27.35;13.60;;;;;;;7.16;72.65;103153.31;4980271;28;20732;-58
2022/04/28 05:15:21;;;;;;;23.80;12.77;;;;;;;7.23;71.93;103152.00;4998122;28;20045;-59
2022/04/28 05:17:46;;;;;;;26.38;12.77;;;;;;;7.37;71.91;103156.38;4999767;28;20049;-59
2022/04/28 05:20:13;;;;;;;23.65;12.45;;;;;;;7.48;71.62;103157.91;4982863;28;20654;-59
2022/04/28 05:22:38;;;;;;;22.27;12.82;;;;;;;7.62;71.44;103156.19;4997844;28;20120;-58
2022/04/28 05:25:04;;;;;;;23.02;11.88;;;;;;;7.68;70.45;103156.56;4998914;28;20450;-59
2022/04/28 05:27:29;;;;;;;23.67;12.48;;;;;;;7.80;70.03;103159.91;4989418;28;20057;-59
2022/04/28 05:29:55;;;;;;;24.17;12.00;;;;;;;7.87;69.88;103163.78;4996693;28;20048;-59
2022/04/28 05:32:20;;;;;;;23.58;11.75;;;;;;;8.00;69.47;103164.59;4994210;28;20379;-59
2022/04/28 05:34:46;;;;;;;24.65;11.18;;;;;;;8.06;68.57;103169.25;4993864;28;20448;-60
2022/04/28 05:37:14;;;;;;;24.35;11.65;;;;;;;8.11;68.08;103171.31;4993984;28;20479;-62
2022/04/28 05:39:41;;;;;;;24.00;11.35;;;;;;;8.14;67.90;103184.50;4999090;28;20121;-60
2022/04/28 05:42:07;;;;;;;25.48;11.23;;;;;;;8.30;67.68;103188.94;4991123;28;20045;-61
2022/04/28 05:47:19;;;;;;;19.70;11.23;;;;;;;8.43;67.18;103201.84;4997963;28;20164;-60
2022/04/28 05:49:46;;;;;;;17.25;10.55;;;;;;;8.58;66.71;103200.97;4998259;28;20182;-59
2022/04/28 05:52:11;;;;;;;20.02;10.35;;;;;;;8.70;66.22;103212.09;4989332;28;20086;-60
2022/04/28 05:54:39;;;;;;;20.40;11.00;;;;;;;8.93;66.14;103210.00;4999046;28;20048;-61
2022/04/28 05:57:05;;;;;;;19.38;10.25;;;;;;;9.06;64.56;103205.50;4994807;28;20056;-59
2022/04/28 05:59:30;;;;;;;21.70;11.00;;;;;;;9.11;64.00;103209.25;4990729;28;20221;-59
2022/04/28 06:01:56;;;;;;;21.25;10.13;;;;;;;9.20;64.47;103217.59;4994869;28;20889;-61
2022/04/28 06:04:23;;;;;;;23.42;10.02;;;;;;;9.11;63.03;103214.44;4989308;28;21519;-60
2022/04/28 06:06:49;;;;;;;22.10;10.43;;;;;;;9.50;63.33;103211.47;4992675;28;20539;-60
2022/04/28 06:09:14;;;;;;;23.13;9.95;;;;;;;9.98;61.69;103214.91;4996781;28;20040;-60
2022/04/28 06:11:40;;;;;;;17.23;9.98;;;;;;;10.57;59.24;103223.25;4991854;28;20455;-61
2022/04/28 06:14:05;;;;;;;23.25;10.02;;;;;;;11.65;55.49;103218.97;4988568;28;20037;-62
2022/04/28 06:16:30;;;;;;;18.30;9.23;;;;;;;13.02;51.95;103217.13;4989419;28;20049;-61
2022/04/28 06:18:56;;;;;;;13.48;8.57;;;;;;;13.86;50.30;103216.09;4978771;28;20060;-60
2022/04/28 06:21:22;;;;;;;18.50;9.00;;;;;;;15.39;47.86;103220.47;4995578;28;20053;-60
2022/04/28 06:23:48;;;;;;;16.42;8.63;;;;;;;16.15;43.59;103221.03;4991523;28;20069;-61
2022/04/28 06:26:14;;;;;;;17.50;8.30;;;;;;;15.89;44.20;103226.41;4987226;28;20425;-59
2022/04/28 06:28:40;;;;;;;15.15;8.57;;;;;;;16.23;44.00;103234.38;4996829;28;20083;-60
2022/04/28 06:31:06;;;;;;;15.38;8.30;;;;;;;16.72;41.19;103230.44;4993825;28;20463;-60
2022/04/28 06:33:32;;;;;;;12.45;8.07;;;;;;;17.18;42.42;103229.84;4997747;28;20472;-60
2022/04/28 06:36:01;;;;;;;13.80;8.18;;;;;;;17.17;41.31;103230.69;4999082;28;20057;-60
2022/04/28 06:38:27;;;;;;;14.88;8.05;;;;;;;17.25;41.45;103232.66;4994509;28;20546;-58
2022/04/28 06:40:52;;;;;;;15.65;7.30;;;;;;;17.82;39.56;103235.72;4986611;28;20503;-59
2022/04/28 06:43:18;;;;;;;13.57;6.80;;;;;;;17.69;37.60;103228.41;4989103;28;22267;-59
2022/04/28 06:46:11;;;;;;;14.25;6.97;;;;;;;17.10;39.27;103239.31;5001581;28;20064;-59
2022/04/28 06:48:29;;;;;;;11.30;6.05;;;;;;;17.26;40.12;103241.47;4991403;28;20073;-60
2022/04/28 06:50:54;;;;;;;12.55;6.82;;;;;;;18.13;37.21;103242.50;4996426;28;20061;-60
2022/04/28 06:53:20;;;;;;;12.27;6.53;;;;;;;18.84;37.11;103242.09;4983829;28;20053;-60
2022/04/28 06:55:45;;;;;;;11.82;6.60;;;;;;;18.59;35.83;103246.97;4987732;28;20120;-58
2022/04/28 06:58:11;;;;;;;10.57;6.50;;;;;;;18.97;35.59;103247.59;4981100;28;20132;-59
2022/04/28 07:00:36;;;;;;;11.45;6.32;;;;;;;19.01;35.42;103243.25;4974622;28;20038;-59
2022/04/28 07:03:01;;;;;;;11.77;6.38;;;;;;;18.90;35.04;103258.06;4993576;28;20041;-60
2022/04/28 07:05:27;;;;;;;12.68;6.32;;;;;;;19.16;34.22;103248.78;4995463;28;20049;-60
2022/04/28 07:07:52;;;;;;;11.02;6.25;;;;;;;19.15;34.31;103249.63;4986374;28;20061;-60
2022/04/28 07:10:17;;;;;;;11.65;6.18;;;;;;;18.93;36.79;103256.34;4981046;28;20682;-60
2022/04/28 07:12:43;;;;;;;12.07;6.03;;;;;;;19.35;34.21;103257.88;4991012;28;20075;-59
2022/04/28 07:15:09;;;;;;;10.73;5.75;;;;;;;19.92;32.85;103263.13;4993502;28;20041;-60
2022/04/28 07:17:35;;;;;;;11.63;5.57;;;;;;;18.98;34.46;103267.88;4990317;28;20061;-60
2022/04/28 07:20:00;;;;;;;13.10;6.10;;;;;;;18.66;36.49;103271.75;4992631;28;20458;-59
2022/04/28 07:22:26;;;;;;;11.60;5.50;;;;;;;18.40;35.09;103270.31;4979793;28;20082;-59
2022/04/28 07:24:51;;;;;;;10.65;5.28;;;;;;;18.59;34.50;103278.66;4999078;28;20054;-60
2022/04/28 07:27:16;;;;;;;13.88;5.95;;;;;;;18.03;35.28;103274.88;4997265;28;20098;-60
2022/04/28 07:29:42;;;;;;;12.80;5.53;;;;;;;18.65;35.28;103277.88;4992242;28;20041;-59
2022/04/28 07:32:07;;;;;;;13.10;5.63;;;;;;;19.03;34.67;103273.25;4988783;28;20567;-59
2022/04/28 07:34:33;;;;;;;12.90;5.25;;;;;;;18.91;34.40;103273.03;4996490;28;20084;-59
2022/04/28 07:36:58;;;;;;;11.43;5.25;;;;;;;18.78;33.86;103277.25;4995072;28;20038;-58
2022/04/28 07:39:24;;;;;;;14.15;5.10;;;;;;;18.99;33.77;103277.59;4994546;28;20381;-61
2022/04/28 07:41:53;;;;;;;10.77;4.82;;;;;;;19.04;36.20;103278.56;4989919;28;20666;-59
2022/04/28 07:44:18;;;;;;;12.25;5.13;;;;;;;18.64;34.26;103286.66;4987091;28;20041;-59
2022/04/28 07:46:43;;;;;;;10.50;4.90;;;;;;;18.31;34.62;103285.97;4996161;28;20310;-60
2022/04/28 07:49:09;;;;;;;13.05;5.07;;;;;;;18.60;34.62;103287.50;4996076;28;20706;-60
2022/04/28 07:51:35;;;;;;;11.43;5.22;;;;;;;19.11;33.95;103284.84;4986321;28;20086;-60
2022/04/28 07:54:02;;;;;;;14.00;5.50;;;;;;;19.03;33.63;103282.06;4978080;28;20042;-58
2022/04/28 07:56:28;;;;;;;9.50;5.13;;;;;;;19.63;33.00;103281.28;4993940;28;20057;-60
2022/04/28 07:58:53;;;;;;;12.45;5.43;;;;;;;19.66;33.77;103288.34;4992515;28;20048;-59
2022/04/28 08:01:18;;;;;;;11.63;5.40;;;;;;;18.48;36.55;103295.16;4978592;28;20315;-61
2022/04/28 08:03:44;;;;;;;13.70;5.85;;;;;;;18.17;34.54;103291.00;4995614;28;20159;-60
2022/04/28 08:06:13;;;;;;;10.23;5.45;;;;;;;18.35;35.82;103296.66;4988367;28;20585;-59
2022/04/28 08:08:41;;;;;;;11.20;5.85;;;;;;;18.94;36.38;103289.84;4992776;28;20471;-59
2022/04/28 08:11:07;;;;;;;12.18;6.15;;;;;;;18.25;37.92;103289.38;4992262;28;20042;-59
2022/04/28 08:13:34;;;;;;;11.02;5.90;;;;;;;18.37;37.23;103294.91;4995646;28;20046;-59
2022/04/28 08:16:00;;;;;;;11.98;5.97;;;;;;;17.62;37.84;103289.81;4993714;28;20073;-58
2022/04/28 08:18:26;;;;;;;14.20;6.40;;;;;;;17.74;37.15;103305.03;4990059;28;20038;-62
2022/04/28 08:20:51;;;;;;;11.25;6.28;;;;;;;17.24;37.75;103304.69;4992344;28;20049;-59
2022/04/28 08:23:17;;;;;;;12.13;6.30;;;;;;;17.41;39.26;103303.34;4997521;28;20122;-60
2022/04/28 08:25:42;;;;;;;11.70;6.40;;;;;;;17.53;38.66;103296.59;4979003;28;20049;-59
2022/04/28 08:28:07;;;;;;;15.45;6.72;;;;;;;17.38;38.97;103305.03;4992757;28;20554;-60
2022/04/28 08:30:32;;;;;;;12.77;6.05;;;;;;;16.96;37.04;103299.56;4978858;28;20111;-59
2022/04/28 08:32:59;;;;;;;14.32;6.20;;;;;;;16.46;38.74;103296.47;4994636;28;20523;-58
2022/04/28 08:35:25;;;;;;;16.10;6.70;;;;;;;15.66;40.49;103300.25;4995547;28;20026;-58
2022/04/28 08:37:50;;;;;;;11.43;5.70;;;;;;;15.84;40.78;103305.19;4995119;28;20041;-60
2022/04/28 08:40:17;;;;;;;13.00;6.70;;;;;;;15.30;41.15;103302.59;4988881;28;20611;-60
2022/04/28 08:42:44;;;;;;;10.85;6.60;;;;;;;15.00;43.11;103306.81;4997598;28;20050;-59
2022/04/28 08:45:10;;;;;;;15.07;7.85;;;;;;;15.09;42.01;103304.50;4987667;28;20464;-60
2022/04/28 08:47:35;;;;;;;15.00;7.47;;;;;;;15.25;42.96;103303.25;5000351;28;20156;-59
2022/04/28 08:50:01;;;;;;;14.80;7.45;;;;;;;15.33;42.25;103305.28;4991467;28;20353;-59
2022/04/28 08:52:27;;;;;;;11.52;6.88;;;;;;;15.64;41.50;103299.31;4989420;28;20049;-59
2022/04/28 08:54:55;;;;;;;13.48;7.10;;;;;;;15.48;41.54;103301.38;4997712;28;20098;-61
2022/04/28 08:57:22;;;;;;;13.50;7.00;;;;;;;15.08;41.97;103296.53;4995395;28;20132;-59
2022/04/28 08:59:48;;;;;;;15.63;7.30;;;;;;;15.13;42.55;103298.47;4987060;28;20761;-61
2022/04/28 09:02:14;;;;;;;10.80;7.03;;;;;;;14.75;43.00;103310.34;4984446;28;20453;-60
2022/04/28 09:04:40;;;;;;;15.40;7.50;;;;;;;14.79;42.90;103295.56;4992224;28;20128;-59
2022/04/28 09:07:08;;;;;;;13.07;6.57;;;;;;;14.83;43.67;103308.84;4998757;28;20060;-60
2022/04/28 09:09:34;;;;;;;14.40;6.43;;;;;;;14.95;44.24;103305.75;4996847;28;20501;-60
2022/04/28 09:12:02;;;;;;;13.02;6.38;;;;;;;15.27;42.92;103304.19;4992233;28;20033;-58
2022/04/28 09:14:27;;;;;;;12.15;6.60;;;;;;;15.12;42.94;103301.09;4994161;28;20038;-59
2022/04/28 09:17:02;;;;;;;15.57;6.68;;;;;;;15.46;40.94;103305.69;4993649;28;20339;-59
2022/04/28 09:19:34;;;;;;;13.23;6.25;;;;;;;15.69;40.58;103294.19;4982459;28;20520;-59
2022/04/28 09:22:05;;;;;;;9.90;5.50;;;;;;;15.75;40.75;103292.63;4987689;28;20136;-59
2022/04/28 09:24:31;;;;;;;13.15;6.43;;;;;;;15.44;40.34;103293.38;4993773;28;20093;-60
2022/04/28 09:26:56;;;;;;;12.60;6.15;;;;;;;15.33;41.10;103297.41;4989480;28;20065;-59
2022/04/28 09:29:24;;;;;;;14.68;5.90;;;;;;;15.64;42.25;103291.41;4995615;28;20128;-57
2022/04/28 09:31:51;;;;;;;13.05;6.40;;;;;;;15.59;41.25;103287.75;4995097;28;20481;-59
2022/04/28 09:34:19;;;;;;;18.33;6.72;;;;;;;15.39;42.04;103284.47;4990061;28;20038;-58
2022/04/28 09:36:46;;;;;;;14.18;6.57;;;;;;;15.18;41.17;103298.66;4996353;28;20080;-59
2022/04/28 09:42:30;;;;;;;12.18;6.93;;;;;;;15.45;41.07;103289.03;4984149;28;20063;-60
2022/04/28 09:45:00;;;;;;;13.07;6.43;;;;;;;15.61;41.89;103293.97;4993280;28;20037;-60
2022/04/28 09:47:27;;;;;;;14.82;6.65;;;;;;;15.76;40.94;103281.28;4986681;28;20512;-59
2022/04/28 09:49:55;;;;;;;12.95;7.05;;;;;;;15.63;41.44;103288.72;4993341;28;20041;-59
2022/04/28 09:52:32;;;;;;;13.85;7.38;;;;;;;15.35;40.90;103292.22;4978357;28;20053;-58
2022/04/28 09:54:59;;;;;;;12.35;6.85;;;;;;;15.68;41.06;103288.03;4992556;28;20347;-59
2022/04/28 09:57:25;;;;;;;12.48;7.00;;;;;;;16.18;40.76;103288.63;5000780;28;20046;-60
2022/04/28 09:59:54;;;;;;;12.93;7.13;;;;;;;16.12;41.03;103294.63;4989049;28;20045;-59
2022/04/28 10:02:22;;;;;;;13.07;7.13;;;;;;;16.25;40.84;103287.97;4982884;28;20088;-60
2022/04/28 10:04:48;;;;;;;12.48;6.78;;;;;;;16.47;39.52;103279.81;4992469;28;20490;-59
2022/04/28 10:07:14;;;;;;;14.10;6.95;;;;;;;16.05;40.60;103270.69;4991540;28;20038;-59
2022/04/28 10:09:41;;;;;;;14.27;7.63;;;;;;;15.90;40.76;103283.44;4995136;28;20033;-60
2022/04/28 10:12:08;;;;;;;18.35;6.82;;;;;;;16.40;41.06;103275.25;4980146;28;20049;-62
2022/04/28 10:14:34;;;;;;;15.00;7.10;;;;;;;16.22;40.68;103280.00;4989252;28;20045;-58
2022/04/28 10:17:01;;;;;;;14.40;7.05;;;;;;;16.53;41.46;103290.50;4995620;28;20393;-59
2022/04/28 10:19:34;;;;;;;13.52;7.22;;;;;;;15.77;40.17;103274.28;4996037;28;20038;-57
2022/04/28 10:22:12;;;;;;;14.68;7.72;;;;;;;15.58;40.56;103271.94;4969220;28;20049;-57
2022/04/28 10:33:19;;;;;;;16.00;7.13;;;;;;;15.19;44.33;103277.66;4998349;28;20180;-60
2022/04/28 10:35:48;;;;;;;14.63;7.43;;;;;;;15.58;41.41;103278.09;4990379;28;20076;-58
2022/04/28 10:38:38;;;;;;;15.85;7.32;;;;;;;15.77;41.07;103284.78;4989361;28;20091;-60
2022/04/28 10:41:10;;;;;;;14.43;7.40;;;;;;;15.66;41.37;103283.59;4998353;28;20041;-60
2022/04/28 10:43:55;;;;;;;12.23;7.00;;;;;;;15.64;40.90;103283.53;4997349;28;20590;-59
2022/04/28 10:46:24;;;;;;;12.18;6.70;;;;;;;15.36;41.61;103286.13;4981412;28;20042;-59
2022/04/28 10:48:53;;;;;;;12.73;7.05;;;;;;;15.02;42.25;103281.47;4999076;28;20613;-60
2022/04/28 10:51:26;;;;;;;14.18;7.18;;;;;;;15.36;41.11;103278.22;4990644;28;20888;-59
2022/04/28 10:54:06;;;;;;;13.80;7.10;;;;;;;15.41;40.96;103276.63;4990690;28;20052;-59
2022/04/28 10:57:05;;;;;;;11.88;6.90;;;;;;;15.43;41.94;103274.91;4994945;28;20563;-58
2022/04/28 10:59:34;;;;;;;13.52;7.25;;;;;;;15.47;41.24;103274.19;4996495;28;20222;-59
2022/04/28 11:02:25;;;;;;;12.20;7.07;;;;;;;15.81;41.09;103279.66;4991148;28;20038;-58
2022/04/28 11:04:54;;;;;;;14.50;7.22;;;;;;;15.29;41.11;103271.88;4979792;28;20049;-58
2022/04/28 11:07:23;;;;;;;14.35;7.00;;;;;;;15.35;40.99;103264.19;4992786;28;20188;-60
2022/04/28 11:10:04;;;;;;;17.88;7.28;;;;;;;15.66;43.12;103268.69;4985502;28;20048;-58
2022/04/28 11:12:34;;;;;;;12.65;6.95;;;;;;;15.91;41.06;103259.81;4984586;28;20374;-59
2022/04/28 11:15:04;;;;;;;16.20;6.70;;;;;;;16.03;39.84;103264.53;4989368;28;20037;-60
2022/04/28 11:17:32;;;;;;;14.63;7.10;;;;;;;15.80;39.48;103264.72;4995342;28;20081;-58
2022/04/28 11:20:04;;;;;;;16.10;6.93;;;;;;;15.66;40.71;103266.06;4994103;28;20334;-60
2022/04/28 11:22:30;;;;;;;12.05;6.97;;;;;;;15.80;40.37;103266.47;4996237;28;20586;-59
2022/04/28 11:24:59;;;;;;;14.40;7.43;;;;;;;15.69;41.56;103270.50;4991684;28;20045;-59
2022/04/28 11:27:29;;;;;;;15.45;6.88;;;;;;;15.77;39.96;103258.50;4993261;28;20053;-59
2022/04/28 11:29:58;;;;;;;20.88;7.10;;;;;;;15.73;39.80;103273.31;4972978;28;20088;-60
2022/04/28 11:32:25;;;;;;;16.45;7.78;;;;;;;15.66;41.69;103273.06;4985684;28;20132;-62
2022/04/28 11:34:52;;;;;;;14.15;6.82;;;;;;;16.17;39.30;103271.06;4995453;28;20049;-60
2022/04/28 11:37:24;;;;;;;13.27;6.85;;;;;;;16.36;39.70;103265.47;4996666;28;20076;-60
2022/04/28 11:39:54;;;;;;;15.45;6.80;;;;;;;16.48;39.69;103257.00;4994933;28;20250;-60
2022/04/28 11:42:21;;;;;;;17.33;7.93;;;;;;;15.98;40.05;103256.47;4983871;28;20462;-59
2022/04/28 11:44:51;;;;;;;12.73;7.45;;;;;;;16.03;39.73;103259.25;4990991;28;20519;-59